sensor_id;sensor_type;location;lat;lon;timestamp;pressure;altitude;pressure_sealevel;temperature
27986;BMP280;15453;53.692;10.168;2022-10-16T00:00:52;100565.97;;;18.23
27986;BMP280;15453;53.692;10.168;2022-10-16T00:03:17;100569.06;;;18.22
27986;BMP280;15453;53.692;10.168;2022-10-16T00:05:43;100565.97;;;18.23
27986;BMP280;15453;53.692;10.168;2022-10-16T00:08:10;100565.97;;;18.23
27986;BMP280;15453;53.692;10.168;2022-10-16T00:10:36;100575.41;;;18.22
27986;BMP280;15453;53.692;10.168;2022-10-16T00:13:02;100575.41;;;18.22
27986;BMP280;15453;53.692;10.168;2022-10-16T00:15:27;100582.91;;;18.22
27986;BMP280;15453;53.692;10.168;2022-10-16T00:17:53;100576.03;;;18.19
27986;BMP280;15453;53.692;10.168;2022-10-16T00:20:18;100572.72;;;18.17
27986;BMP280;15453;53.692;10.168;2022-10-16T00:22:43;100572.72;;;18.17
27986;BMP280;15453;53.692;10.168;2022-10-16T00:25:08;100572.72;;;18.17
27986;BMP280;15453;53.692;10.168;2022-10-16T00:27:34;100574.44;;;18.13
27986;BMP280;15453;53.692;10.168;2022-10-16T00:29:59;100572.50;;;18.14
27986;BMP280;15453;53.692;10.168;2022-10-16T00:32:24;100581.34;;;18.16
27986;BMP280;15453;53.692;10.168;2022-10-16T00:34:49;100587.19;;;18.14
27986;BMP280;15453;53.692;10.168;2022-10-16T00:37:15;100584.72;;;18.13
27986;BMP280;15453;53.692;10.168;2022-10-16T00:39:40;100585.03;;;18.11
27986;BMP280;15453;53.692;10.168;2022-10-16T00:42:06;100588.09;;;18.10
27986;BMP280;15453;53.692;10.168;2022-10-16T00:47:14;100600.91;;;18.06
27986;BMP280;15453;53.692;10.168;2022-10-16T00:49:41;100595.16;;;18.02
27986;BMP280;15453;53.692;10.168;2022-10-16T00:52:06;100601.81;;;18.01
27986;BMP280;15453;53.692;10.168;2022-10-16T00:54:31;100601.81;;;18.01
27986;BMP280;15453;53.692;10.168;2022-10-16T00:57:00;100605.41;;;18.02
27986;BMP280;15453;53.692;10.168;2022-10-16T00:59:28;100595.47;;;18.01
27986;BMP280;15453;53.692;10.168;2022-10-16T01:01:54;100595.47;;;18.01
27986;BMP280;15453;53.692;10.168;2022-10-16T01:04:20;100594.41;;;17.97
27986;BMP280;15453;53.692;10.168;2022-10-16T01:12:23;100610.81;;;17.93
27986;BMP280;15453;53.692;10.168;2022-10-16T01:15:06;100597.78;;;17.94
27986;BMP280;15453;53.692;10.168;2022-10-16T01:17:43;100603.63;;;17.92
27986;BMP280;15453;53.692;10.168;2022-10-16T01:20:20;100606.38;;;17.92
27986;BMP280;15453;53.692;10.168;2022-10-16T01:28:28;100622.22;;;17.92
27986;BMP280;15453;53.692;10.168;2022-10-16T01:30:58;100622.22;;;17.92
27986;BMP280;15453;53.692;10.168;2022-10-16T01:33:28;100616.72;;;17.87
27986;BMP280;15453;53.692;10.168;2022-10-16T01:35:59;100616.72;;;17.87
27986;BMP280;15453;53.692;10.168;2022-10-16T01:38:38;100615.97;;;17.81
27986;BMP280;15453;53.692;10.168;2022-10-16T01:41:09;100625.41;;;17.80
27986;BMP280;15453;53.692;10.168;2022-10-16T01:43:42;100625.41;;;17.80
27986;BMP280;15453;53.692;10.168;2022-10-16T01:46:10;100625.50;;;17.75
27986;BMP280;15453;53.692;10.168;2022-10-16T01:48:36;100626.09;;;17.72
27986;BMP280;15453;53.692;10.168;2022-10-16T01:51:10;100626.09;;;17.72
27986;BMP280;15453;53.692;10.168;2022-10-16T01:53:36;100623.38;;;17.67
27986;BMP280;15453;53.692;10.168;2022-10-16T01:56:04;100622.59;;;17.67
27986;BMP280;15453;53.692;10.168;2022-10-16T01:58:34;100629.22;;;17.66
27986;BMP280;15453;53.692;10.168;2022-10-16T02:01:02;100629.22;;;17.66
27986;BMP280;15453;53.692;10.168;2022-10-16T02:03:29;100626.53;;;17.61
27986;BMP280;15453;53.692;10.168;2022-10-16T02:05:56;100626.53;;;17.61
27986;BMP280;15453;53.692;10.168;2022-10-16T02:08:24;100631.03;;;17.57
27986;BMP280;15453;53.692;10.168;2022-10-16T02:10:50;100623.00;;;17.55
27986;BMP280;15453;53.692;10.168;2022-10-16T02:13:20;100628.84;;;17.54
27986;BMP280;15453;53.692;10.168;2022-10-16T02:15:46;100624.72;;;17.51
27986;BMP280;15453;53.692;10.168;2022-10-16T02:18:12;100624.72;;;17.51
27986;BMP280;15453;53.692;10.168;2022-10-16T02:20:50;100628.09;;;17.48
27986;BMP280;15453;53.692;10.168;2022-10-16T02:23:23;100622.31;;;17.45
27986;BMP280;15453;53.692;10.168;2022-10-16T02:25:50;100620.69;;;17.44
27986;BMP280;15453;53.692;10.168;2022-10-16T02:28:21;100621.81;;;17.43
27986;BMP280;15453;53.692;10.168;2022-10-16T02:30:51;100628.75;;;17.40
27986;BMP280;15453;53.692;10.168;2022-10-16T02:33:21;100625.72;;;17.37
27986;BMP280;15453;53.692;10.168;2022-10-16T02:35:48;100627.97;;;17.35
27986;BMP280;15453;53.692;10.168;2022-10-16T02:38:16;100619.97;;;17.33
27986;BMP280;15453;53.692;10.168;2022-10-16T02:40:42;100628.56;;;17.32
27986;BMP280;15453;53.692;10.168;2022-10-16T02:43:08;100634.69;;;17.28
27986;BMP280;15453;53.692;10.168;2022-10-16T02:45:34;100623.09;;;17.27
27986;BMP280;15453;53.692;10.168;2022-10-16T02:47:59;100624.50;;;17.24
27986;BMP280;15453;53.692;10.168;2022-10-16T02:50:24;100624.50;;;17.24
27986;BMP280;15453;53.692;10.168;2022-10-16T02:52:50;100630.91;;;17.19
27986;BMP280;15453;53.692;10.168;2022-10-16T02:55:15;100638.72;;;17.17
27986;BMP280;15453;53.692;10.168;2022-10-16T02:57:41;100642.59;;;17.17
27986;BMP280;15453;53.692;10.168;2022-10-16T03:00:08;100642.59;;;17.17
27986;BMP280;15453;53.692;10.168;2022-10-16T03:02:34;100644.31;;;17.13
27986;BMP280;15453;53.692;10.168;2022-10-16T03:05:00;100647.66;;;17.09
27986;BMP280;15453;53.692;10.168;2022-10-16T03:07:25;100641.56;;;17.07
27986;BMP280;15453;53.692;10.168;2022-10-16T03:09:50;100631.91;;;17.05
27986;BMP280;15453;53.692;10.168;2022-10-16T03:12:15;100632.53;;;17.02
27986;BMP280;15453;53.692;10.168;2022-10-16T03:14:40;100639.16;;;17.01
27986;BMP280;15453;53.692;10.168;2022-10-16T03:17:06;100634.25;;;16.98
27986;BMP280;15453;53.692;10.168;2022-10-16T03:19:31;100630.09;;;16.95
27986;BMP280;15453;53.692;10.168;2022-10-16T03:21:56;100630.09;;;16.95
27986;BMP280;15453;53.692;10.168;2022-10-16T03:24:22;100629.34;;;16.90
27986;BMP280;15453;53.692;10.168;2022-10-16T03:26:47;100631.06;;;16.86
27986;BMP280;15453;53.692;10.168;2022-10-16T03:29:12;100636.03;;;16.84
27986;BMP280;15453;53.692;10.168;2022-10-16T03:31:38;100636.03;;;16.84
27986;BMP280;15453;53.692;10.168;2022-10-16T03:34:03;100629.72;;;16.78
27986;BMP280;15453;53.692;10.168;2022-10-16T03:36:28;100631.44;;;16.74
27986;BMP280;15453;53.692;10.168;2022-10-16T03:38:53;100624.53;;;16.72
27986;BMP280;15453;53.692;10.168;2022-10-16T03:41:19;100639.78;;;16.69
27986;BMP280;15453;53.692;10.168;2022-10-16T03:43:44;100639.78;;;16.69
27986;BMP280;15453;53.692;10.168;2022-10-16T03:46:09;100648.41;;;16.63
27986;BMP280;15453;53.692;10.168;2022-10-16T03:48:34;100648.41;;;16.63
27986;BMP280;15453;53.692;10.168;2022-10-16T03:51:00;100637.69;;;16.56
27986;BMP280;15453;53.692;10.168;2022-10-16T03:53:25;100644.06;;;16.57
27986;BMP280;15453;53.692;10.168;2022-10-16T03:55:50;100648.25;;;16.54
27986;BMP280;15453;53.692;10.168;2022-10-16T03:58:16;100648.25;;;16.54
27986;BMP280;15453;53.692;10.168;2022-10-16T04:00:42;100650.75;;;16.51
27986;BMP280;15453;53.692;10.168;2022-10-16T04:03:08;100647.47;;;16.49
27986;BMP280;15453;53.692;10.168;2022-10-16T04:05:33;100647.47;;;16.49
27986;BMP280;15453;53.692;10.168;2022-10-16T04:07:58;100649.97;;;16.45
27986;BMP280;15453;53.692;10.168;2022-10-16T04:10:23;100649.97;;;16.45
27986;BMP280;15453;53.692;10.168;2022-10-16T04:12:49;100662.41;;;16.43
27986;BMP280;15453;53.692;10.168;2022-10-16T04:15:14;100675.44;;;16.42
27986;BMP280;15453;53.692;10.168;2022-10-16T04:17:39;100686.78;;;16.41
27986;BMP280;15453;53.692;10.168;2022-10-16T04:20:05;100692.31;;;16.41
27986;BMP280;15453;53.692;10.168;2022-10-16T04:22:30;100688.72;;;16.40
27986;BMP280;15453;53.692;10.168;2022-10-16T04:24:56;100688.97;;;16.39
27986;BMP280;15453;53.692;10.168;2022-10-16T04:27:21;100696.44;;;16.38
27986;BMP280;15453;53.692;10.168;2022-10-16T04:29:46;100696.44;;;16.38
27986;BMP280;15453;53.692;10.168;2022-10-16T04:32:11;100686.50;;;16.37
27986;BMP280;15453;53.692;10.168;2022-10-16T04:34:39;100686.50;;;16.37
27986;BMP280;15453;53.692;10.168;2022-10-16T04:37:04;100680.97;;;16.37
27986;BMP280;15453;53.692;10.168;2022-10-16T04:41:58;100685.13;;;16.35
27986;BMP280;15453;53.692;10.168;2022-10-16T04:44:23;100690.13;;;16.33
27986;BMP280;15453;53.692;10.168;2022-10-16T04:46:50;100699.25;;;16.33
27986;BMP280;15453;53.692;10.168;2022-10-16T04:49:15;100699.25;;;16.33
27986;BMP280;15453;53.692;10.168;2022-10-16T04:51:41;100701.47;;;16.31
27986;BMP280;15453;53.692;10.168;2022-10-16T04:54:06;100710.59;;;16.32
27986;BMP280;15453;53.692;10.168;2022-10-16T04:56:31;100707.00;;;16.31
27986;BMP280;15453;53.692;10.168;2022-10-16T04:58:56;100707.00;;;16.31
27986;BMP280;15453;53.692;10.168;2022-10-16T05:01:22;100706.47;;;16.29
27986;BMP280;15453;53.692;10.168;2022-10-16T05:03:47;100706.47;;;16.29
27986;BMP280;15453;53.692;10.168;2022-10-16T05:06:12;100709.78;;;16.26
27986;BMP280;15453;53.692;10.168;2022-10-16T05:08:37;100719.22;;;16.25
27986;BMP280;15453;53.692;10.168;2022-10-16T05:11:03;100715.09;;;16.23
27986;BMP280;15453;53.692;10.168;2022-10-16T05:13:28;100714.53;;;16.21
27986;BMP280;15453;53.692;10.168;2022-10-16T05:15:53;100713.69;;;16.20
27986;BMP280;15453;53.692;10.168;2022-10-16T05:18:18;100724.22;;;16.18
27986;BMP280;15453;53.692;10.168;2022-10-16T05:20:44;100720.91;;;16.16
27986;BMP280;15453;53.692;10.168;2022-10-16T05:23:09;100737.78;;;16.15
27986;BMP280;15453;53.692;10.168;2022-10-16T05:25:37;100731.72;;;16.13
27986;BMP280;15453;53.692;10.168;2022-10-16T05:28:03;100731.72;;;16.13
27986;BMP280;15453;53.692;10.168;2022-10-16T05:30:28;100728.16;;;16.07
27986;BMP280;15453;53.692;10.168;2022-10-16T05:32:53;100733.94;;;16.06
27986;BMP280;15453;53.692;10.168;2022-10-16T05:35:19;100733.44;;;16.04
27986;BMP280;15453;53.692;10.168;2022-10-16T05:37:45;100733.44;;;16.04
27986;BMP280;15453;53.692;10.168;2022-10-16T05:40:11;100726.28;;;15.98
27986;BMP280;15453;53.692;10.168;2022-10-16T05:42:37;100726.59;;;15.96
27986;BMP280;15453;53.692;10.168;2022-10-16T05:45:04;100738.72;;;15.95
27986;BMP280;15453;53.692;10.168;2022-10-16T05:47:30;100732.38;;;15.95
27986;BMP280;15453;53.692;10.168;2022-10-16T05:49:55;100738.19;;;15.93
27986;BMP280;15453;53.692;10.168;2022-10-16T05:52:20;100748.41;;;15.93
27986;BMP280;15453;53.692;10.168;2022-10-16T05:54:46;100748.41;;;15.93
27986;BMP280;15453;53.692;10.168;2022-10-16T05:57:11;100743.47;;;15.90
27986;BMP280;15453;53.692;10.168;2022-10-16T05:59:36;100738.75;;;15.90
27986;BMP280;15453;53.692;10.168;2022-10-16T06:02:02;100738.75;;;15.90
27986;BMP280;15453;53.692;10.168;2022-10-16T06:04:27;100751.75;;;15.90
27986;BMP280;15453;53.692;10.168;2022-10-16T06:06:52;100756.16;;;15.91
27986;BMP280;15453;53.692;10.168;2022-10-16T06:09:17;100756.16;;;15.91
27986;BMP280;15453;53.692;10.168;2022-10-16T06:11:43;100749.78;;;15.90
27986;BMP280;15453;53.692;10.168;2022-10-16T06:14:08;100749.78;;;15.90
27986;BMP280;15453;53.692;10.168;2022-10-16T06:16:35;100755.88;;;15.92
27986;BMP280;15453;53.692;10.168;2022-10-16T06:19:01;100755.88;;;15.92
27986;BMP280;15453;53.692;10.168;2022-10-16T06:21:27;100755.88;;;15.92
27986;BMP280;15453;53.692;10.168;2022-10-16T06:23:54;100749.00;;;15.90
27986;BMP280;15453;53.692;10.168;2022-10-16T06:26:22;100749.78;;;15.90
27986;BMP280;15453;53.692;10.168;2022-10-16T06:28:48;100749.50;;;15.92
27986;BMP280;15453;53.692;10.168;2022-10-16T06:31:14;100755.03;;;15.92
27986;BMP280;15453;53.692;10.168;2022-10-16T06:33:40;100756.69;;;15.93
27986;BMP280;15453;53.692;10.168;2022-10-16T06:36:08;100755.59;;;15.94
27986;BMP280;15453;53.692;10.168;2022-10-16T06:38:34;100769.66;;;15.97
27986;BMP280;15453;53.692;10.168;2022-10-16T06:40:59;100763.00;;;15.98
27986;BMP280;15453;53.692;10.168;2022-10-16T06:43:25;100763.00;;;15.98
27986;BMP280;15453;53.692;10.168;2022-10-16T06:45:52;100783.72;;;16.01
27986;BMP280;15453;53.692;10.168;2022-10-16T06:48:19;100783.72;;;16.01
27986;BMP280;15453;53.692;10.168;2022-10-16T06:50:44;100787.84;;;16.03
27986;BMP280;15453;53.692;10.168;2022-10-16T06:53:09;100784.00;;;16.04
27986;BMP280;15453;53.692;10.168;2022-10-16T06:55:34;100784.53;;;16.06
27986;BMP280;15453;53.692;10.168;2022-10-16T06:58:00;100787.84;;;16.08
27986;BMP280;15453;53.692;10.168;2022-10-16T07:00:25;100810.47;;;16.10
27986;BMP280;15453;53.692;10.168;2022-10-16T07:02:50;100809.06;;;16.13
27986;BMP280;15453;53.692;10.168;2022-10-16T07:05:15;100813.22;;;16.15
27986;BMP280;15453;53.692;10.168;2022-10-16T07:07:41;100813.22;;;16.15
27986;BMP280;15453;53.692;10.168;2022-10-16T07:10:07;100808.72;;;16.24
27986;BMP280;15453;53.692;10.168;2022-10-16T07:12:32;100815.06;;;16.30
27986;BMP280;15453;53.692;10.168;2022-10-16T07:14:57;100807.03;;;16.33
27986;BMP280;15453;53.692;10.168;2022-10-16T07:17:23;100819.47;;;16.41
27986;BMP280;15453;53.692;10.168;2022-10-16T07:19:48;100817.50;;;16.46
27986;BMP280;15453;53.692;10.168;2022-10-16T07:22:13;100827.41;;;16.52
27986;BMP280;15453;53.692;10.168;2022-10-16T07:24:39;100823.50;;;16.58
27986;BMP280;15453;53.692;10.168;2022-10-16T07:27:04;100823.50;;;16.58
27986;BMP280;15453;53.692;10.168;2022-10-16T07:29:29;100839.97;;;16.73
27986;BMP280;15453;53.692;10.168;2022-10-16T07:31:55;100829.41;;;16.80
27986;BMP280;15453;53.692;10.168;2022-10-16T07:34:20;100829.41;;;16.80
27986;BMP280;15453;53.692;10.168;2022-10-16T07:36:50;100838.81;;;16.84
27986;BMP280;15453;53.692;10.168;2022-10-16T07:39:16;100848.03;;;17.03
27986;BMP280;15453;53.692;10.168;2022-10-16T07:41:41;100848.03;;;17.03
27986;BMP280;15453;53.692;10.168;2022-10-16T07:44:07;100847.91;;;17.18
27986;BMP280;15453;53.692;10.168;2022-10-16T07:46:32;100856.72;;;17.26
27986;BMP280;15453;53.692;10.168;2022-10-16T07:48:59;100856.72;;;17.26
27986;BMP280;15453;53.692;10.168;2022-10-16T07:51:25;100849.66;;;17.38
27986;BMP280;15453;53.692;10.168;2022-10-16T07:53:51;100849.66;;;17.38
27986;BMP280;15453;53.692;10.168;2022-10-16T07:56:18;100844.44;;;17.42
27986;BMP280;15453;53.692;10.168;2022-10-16T07:58:44;100845.19;;;17.47
27986;BMP280;15453;53.692;10.168;2022-10-16T08:01:12;100845.97;;;17.53
27986;BMP280;15453;53.692;10.168;2022-10-16T08:03:41;100854.22;;;17.58
27986;BMP280;15453;53.692;10.168;2022-10-16T08:06:06;100861.81;;;17.71
27986;BMP280;15453;53.692;10.168;2022-10-16T08:08:31;100863.72;;;17.75
27986;BMP280;15453;53.692;10.168;2022-10-16T08:10:57;100868.69;;;17.78
27986;BMP280;15453;53.692;10.168;2022-10-16T08:13:22;100869.19;;;17.80
27986;BMP280;15453;53.692;10.168;2022-10-16T08:15:48;100869.19;;;17.80
27986;BMP280;15453;53.692;10.168;2022-10-16T08:18:14;100871.97;;;17.80
27986;BMP280;15453;53.692;10.168;2022-10-16T08:20:41;100859.75;;;17.81
27986;BMP280;15453;53.692;10.168;2022-10-16T08:23:06;100873.59;;;17.86
27986;BMP280;15453;53.692;10.168;2022-10-16T08:25:34;100873.59;;;17.86
27986;BMP280;15453;53.692;10.168;2022-10-16T08:28:00;100879.06;;;17.91
27986;BMP280;15453;53.692;10.168;2022-10-16T08:30:25;100877.34;;;17.95
27986;BMP280;15453;53.692;10.168;2022-10-16T08:32:50;100885.09;;;17.98
27986;BMP280;15453;53.692;10.168;2022-10-16T08:35:16;100885.09;;;17.98
27986;BMP280;15453;53.692;10.168;2022-10-16T08:37:42;100873.69;;;18.00
27986;BMP280;15453;53.692;10.168;2022-10-16T08:40:20;100873.94;;;18.03
27986;BMP280;15453;53.692;10.168;2022-10-16T08:48:17;100882.53;;;18.25
27986;BMP280;15453;53.692;10.168;2022-10-16T08:50:43;100876.91;;;18.30
27986;BMP280;15453;53.692;10.168;2022-10-16T08:53:16;100876.91;;;18.30
27986;BMP280;15453;53.692;10.168;2022-10-16T08:55:50;100881.03;;;18.38
27986;BMP280;15453;53.692;10.168;2022-10-16T09:00:46;100883.47;;;18.39
27986;BMP280;15453;53.692;10.168;2022-10-16T09:06:12;100895.63;;;18.43
27986;BMP280;15453;53.692;10.168;2022-10-16T09:12:16;100905.09;;;18.61
27986;BMP280;15453;53.692;10.168;2022-10-16T09:22:44;100913.16;;;18.81
27986;BMP280;15453;53.692;10.168;2022-10-16T09:25:16;100913.16;;;18.81
27986;BMP280;15453;53.692;10.168;2022-10-16T09:27:44;100908.44;;;18.81
27986;BMP280;15453;53.692;10.168;2022-10-16T09:30:18;100914.00;;;18.81
27986;BMP280;15453;53.692;10.168;2022-10-16T09:32:45;100909.47;;;18.85
27986;BMP280;15453;53.692;10.168;2022-10-16T09:35:17;100914.13;;;18.90
27986;BMP280;15453;53.692;10.168;2022-10-16T09:37:46;100918.50;;;18.96
27986;BMP280;15453;53.692;10.168;2022-10-16T09:40:26;100920.66;;;18.99
27986;BMP280;15453;53.692;10.168;2022-10-16T09:43:01;100925.97;;;19.14
27986;BMP280;15453;53.692;10.168;2022-10-16T09:45:27;100913.94;;;19.18
27986;BMP280;15453;53.692;10.168;2022-10-16T09:47:52;100913.94;;;19.18
27986;BMP280;15453;53.692;10.168;2022-10-16T09:50:26;100916.63;;;19.28
27986;BMP280;15453;53.692;10.168;2022-10-16T09:53:02;100926.81;;;19.33
27986;BMP280;15453;53.692;10.168;2022-10-16T09:55:28;100922.53;;;19.40
27986;BMP280;15453;53.692;10.168;2022-10-16T09:57:54;100928.00;;;19.45
27986;BMP280;15453;53.692;10.168;2022-10-16T10:00:22;100928.00;;;19.45
27986;BMP280;15453;53.692;10.168;2022-10-16T10:02:48;100938.63;;;19.57
27986;BMP280;15453;53.692;10.168;2022-10-16T10:05:25;100938.63;;;19.57
27986;BMP280;15453;53.692;10.168;2022-10-16T10:10:22;100956.78;;;19.68
27986;BMP280;15453;53.692;10.168;2022-10-16T10:12:48;100960.91;;;19.70
27986;BMP280;15453;53.692;10.168;2022-10-16T10:15:14;100960.91;;;19.70
27986;BMP280;15453;53.692;10.168;2022-10-16T10:17:57;100959.97;;;19.75
27986;BMP280;15453;53.692;10.168;2022-10-16T10:20:29;100955.44;;;19.79
27986;BMP280;15453;53.692;10.168;2022-10-16T10:22:56;100956.19;;;19.84
27986;BMP280;15453;53.692;10.168;2022-10-16T10:30:54;100963.84;;;19.92
27986;BMP280;15453;53.692;10.168;2022-10-16T10:35:57;100981.03;;;20.13
27986;BMP280;15453;53.692;10.168;2022-10-16T10:38:39;100977.91;;;20.14
27986;BMP280;15453;53.692;10.168;2022-10-16T10:41:25;100975.84;;;20.20
27986;BMP280;15453;53.692;10.168;2022-10-16T10:44:16;100975.84;;;20.20
27986;BMP280;15453;53.692;10.168;2022-10-16T10:46:55;100978.34;;;20.21
27986;BMP280;15453;53.692;10.168;2022-10-16T10:55:37;100972.38;;;20.28
27986;BMP280;15453;53.692;10.168;2022-10-16T11:00:57;100979.69;;;20.37
27986;BMP280;15453;53.692;10.168;2022-10-16T11:03:45;100979.69;;;20.37
27986;BMP280;15453;53.692;10.168;2022-10-16T11:06:22;100983.50;;;20.41
27986;BMP280;15453;53.692;10.168;2022-10-16T11:09:02;100984.34;;;20.42
27986;BMP280;15453;53.692;10.168;2022-10-16T11:14:13;100980.31;;;20.48
27986;BMP280;15453;53.692;10.168;2022-10-16T11:16:46;100987.41;;;20.54
27986;BMP280;15453;53.692;10.168;2022-10-16T11:21:55;100999.50;;;20.63
27986;BMP280;15453;53.692;10.168;2022-10-16T11:24:42;101000.19;;;20.68
27986;BMP280;15453;53.692;10.168;2022-10-16T11:27:09;100995.88;;;20.76
27986;BMP280;15453;53.692;10.168;2022-10-16T11:29:43;100995.88;;;20.76
27986;BMP280;15453;53.692;10.168;2022-10-16T11:32:21;101010.09;;;20.88
27986;BMP280;15453;53.692;10.168;2022-10-16T11:34:55;101008.56;;;20.95
27986;BMP280;15453;53.692;10.168;2022-10-16T11:37:30;101008.56;;;20.95
27986;BMP280;15453;53.692;10.168;2022-10-16T11:40:08;100994.84;;;20.99
27986;BMP280;15453;53.692;10.168;2022-10-16T11:42:43;101005.06;;;21.03
27986;BMP280;15453;53.692;10.168;2022-10-16T11:48:12;100996.56;;;21.08
27986;BMP280;15453;53.692;10.168;2022-10-16T11:50:53;101025.84;;;21.19
27986;BMP280;15453;53.692;10.168;2022-10-16T11:56:06;101024.59;;;21.25
27986;BMP280;15453;53.692;10.168;2022-10-16T11:58:35;101024.59;;;21.25
27986;BMP280;15453;53.692;10.168;2022-10-16T12:01:17;101040.16;;;21.26
27986;BMP280;15453;53.692;10.168;2022-10-16T12:09:02;101040.25;;;21.35
27986;BMP280;15453;53.692;10.168;2022-10-16T12:16:33;101041.34;;;21.47
27986;BMP280;15453;53.692;10.168;2022-10-16T12:19:13;101043.13;;;21.43
27986;BMP280;15453;53.692;10.168;2022-10-16T12:21:39;101040.50;;;21.60
27986;BMP280;15453;53.692;10.168;2022-10-16T12:24:05;101062.03;;;21.68
27986;BMP280;15453;53.692;10.168;2022-10-16T12:26:38;101071.13;;;21.74
27986;BMP280;15453;53.692;10.168;2022-10-16T12:29:40;101068.56;;;21.77
27986;BMP280;15453;53.692;10.168;2022-10-16T12:32:35;101083.19;;;21.83
27986;BMP280;15453;53.692;10.168;2022-10-16T12:35:02;101073.47;;;21.80
27986;BMP280;15453;53.692;10.168;2022-10-16T12:37:33;101078.44;;;21.83
27986;BMP280;15453;53.692;10.168;2022-10-16T12:39:59;101078.13;;;21.85
27986;BMP280;15453;53.692;10.168;2022-10-16T12:42:36;101088.13;;;21.86
27986;BMP280;15453;53.692;10.168;2022-10-16T12:45:22;101087.13;;;21.82
27986;BMP280;15453;53.692;10.168;2022-10-16T12:47:50;101080.50;;;21.78
27986;BMP280;15453;53.692;10.168;2022-10-16T12:50:28;101094.53;;;21.86
27986;BMP280;15453;53.692;10.168;2022-10-16T12:52:54;101089.28;;;21.85
27986;BMP280;15453;53.692;10.168;2022-10-16T12:55:21;101089.47;;;21.88
27986;BMP280;15453;53.692;10.168;2022-10-16T12:58:09;101103.28;;;21.93
27986;BMP280;15453;53.692;10.168;2022-10-16T13:00:50;101093.78;;;21.94
27986;BMP280;15453;53.692;10.168;2022-10-16T13:06:16;101105.13;;;21.98
27986;BMP280;15453;53.692;10.168;2022-10-16T13:11:43;101120.72;;;21.99
27986;BMP280;15453;53.692;10.168;2022-10-16T13:14:32;101118.25;;;21.97
27986;BMP280;15453;53.692;10.168;2022-10-16T13:25:22;101144.97;;;21.76
27986;BMP280;15453;53.692;10.168;2022-10-16T13:27:54;101139.50;;;21.71
27986;BMP280;15453;53.692;10.168;2022-10-16T13:32:47;101158.94;;;21.49
27986;BMP280;15453;53.692;10.168;2022-10-16T13:35:25;101158.19;;;21.57
27986;BMP280;15453;53.692;10.168;2022-10-16T13:37:50;101165.53;;;21.53
27986;BMP280;15453;53.692;10.168;2022-10-16T13:40:22;101172.97;;;21.44
27986;BMP280;15453;53.692;10.168;2022-10-16T13:42:48;101181.47;;;21.39
27986;BMP280;15453;53.692;10.168;2022-10-16T13:45:24;101183.81;;;21.32
27986;BMP280;15453;53.692;10.168;2022-10-16T13:48:01;101185.88;;;21.27
27986;BMP280;15453;53.692;10.168;2022-10-16T13:50:26;101200.72;;;21.22
27986;BMP280;15453;53.692;10.168;2022-10-16T13:52:52;101200.72;;;21.22
27986;BMP280;15453;53.692;10.168;2022-10-16T13:55:27;101197.53;;;21.15
27986;BMP280;15453;53.692;10.168;2022-10-16T13:57:53;101212.06;;;21.12
27986;BMP280;15453;53.692;10.168;2022-10-16T14:00:20;101210.72;;;21.10
27986;BMP280;15453;53.692;10.168;2022-10-16T14:02:51;101209.91;;;21.09
27986;BMP280;15453;53.692;10.168;2022-10-16T14:05:17;101209.41;;;21.07
27986;BMP280;15453;53.692;10.168;2022-10-16T14:07:42;101209.09;;;21.09
27986;BMP280;15453;53.692;10.168;2022-10-16T14:10:22;101214.13;;;21.07
27986;BMP280;15453;53.692;10.168;2022-10-16T14:15:21;101232.72;;;21.11
27986;BMP280;15453;53.692;10.168;2022-10-16T14:17:50;101232.72;;;21.11
27986;BMP280;15453;53.692;10.168;2022-10-16T14:20:16;101234.38;;;21.12
27986;BMP280;15453;53.692;10.168;2022-10-16T14:22:42;101238.00;;;21.13
27986;BMP280;15453;53.692;10.168;2022-10-16T14:27:45;101245.72;;;21.16
27986;BMP280;15453;53.692;10.168;2022-10-16T14:30:21;101237.03;;;21.17
27986;BMP280;15453;53.692;10.168;2022-10-16T14:35:43;101247.28;;;21.22
27986;BMP280;15453;53.692;10.168;2022-10-16T14:38:18;101251.72;;;21.23
27986;BMP280;15453;53.692;10.168;2022-10-16T14:40:47;101258.63;;;21.25
27986;BMP280;15453;53.692;10.168;2022-10-16T14:43:31;101266.06;;;21.30
27986;BMP280;15453;53.692;10.168;2022-10-16T14:45:57;101266.06;;;21.30
27986;BMP280;15453;53.692;10.168;2022-10-16T14:48:23;101261.59;;;21.29
27986;BMP280;15453;53.692;10.168;2022-10-16T14:50:49;101262.75;;;21.28
27986;BMP280;15453;53.692;10.168;2022-10-16T14:53:14;101263.06;;;21.26
27986;BMP280;15453;53.692;10.168;2022-10-16T14:55:41;101255.03;;;21.25
27986;BMP280;15453;53.692;10.168;2022-10-16T14:58:15;101260.28;;;21.26
27986;BMP280;15453;53.692;10.168;2022-10-16T15:00:41;101266.97;;;21.25
27986;BMP280;15453;53.692;10.168;2022-10-16T15:03:06;101270.38;;;21.22
27986;BMP280;15453;53.692;10.168;2022-10-16T15:05:32;101276.59;;;21.19
27986;BMP280;15453;53.692;10.168;2022-10-16T15:07:57;101278.03;;;21.17
27986;BMP280;15453;53.692;10.168;2022-10-16T15:10:24;101279.78;;;21.13
27986;BMP280;15453;53.692;10.168;2022-10-16T15:12:51;101285.66;;;21.11
27986;BMP280;15453;53.692;10.168;2022-10-16T15:17:48;101295.44;;;21.09
27986;BMP280;15453;53.692;10.168;2022-10-16T15:20:13;101291.06;;;21.03
27986;BMP280;15453;53.692;10.168;2022-10-16T15:22:38;101303.16;;;20.98
27986;BMP280;15453;53.692;10.168;2022-10-16T15:25:22;101301.56;;;20.92
27986;BMP280;15453;53.692;10.168;2022-10-16T15:27:50;101309.38;;;20.90
27986;BMP280;15453;53.692;10.168;2022-10-16T15:30:15;101312.75;;;20.87
27986;BMP280;15453;53.692;10.168;2022-10-16T15:32:41;101307.28;;;20.82
27986;BMP280;15453;53.692;10.168;2022-10-16T15:35:08;101323.75;;;20.79
27986;BMP280;15453;53.692;10.168;2022-10-16T15:37:34;101320.75;;;20.75